Startpagina
METAR-TAF:

METAR-TAF

Vliegvelden :

Aéroport de Sion

Sion, Zwitserland

breedte: 46-13N, lengte: 007-20E, hoogte: 482 m

Actueel weer

Dit bericht is 33 minuten geleden gemaakt, om 19:50 UTC
Wind 3 kt uit het westzuidwesten, variërend tussen het zuiden en het westnoordwesten
Temperatuur 18°C
Vochtigheid 64%
Druk 1004 hPa
Zicht 10 km of meer
Weinig wolken op 8500 ft
Verspreide wolken op 9500 ft

METAR: LSGS 031950Z AUTO 24003KT 180V290 9999 FEW085 SCT095 18/11 Q1004

Tijdstip: 22:23 (20:23 UTC)

Verwachting

Dit bericht is 5 uur en het 58 minuten geleden gemaakt, om 14:25 UTC
Verwachting geldig van 03 om 15 UTC tot 03 om 24 UTC
Wind 14 kt uit het westzuidwesten
Zicht 10 km of meer
Verspreide wolken op 10000 ft
Tijdelijke
van 03 om 15 UTC tot 03 om 20 UTC
Gebroken wolken op 5000 ft
regenbuien
Wijzigt naar
van 03 om 17 UTC tot 03 om 19 UTC
Wind 3 kt uit variabele richting

TAF: LSGS 031425Z 0315/0324 25014KT 9999 SCT100 TEMPO 0315/0320 SHRA BKN050 BECMG 0317/0319 VRB03KT

Waarnemingen en weersverwachtingen van meer dan 4000 vliegvelden (METAR en TAF).

De beschikbare stations zijn de gele en rode punten op de kaart.

Ga met uw muis naar het station om de naam te zien.

Klik dan om waarnemingen en weersverwachtingen te zien.

kaart wijzigen: klik op de groene knoppen met een zwart kruis om in te zoomen, op de groene knop met een streepje om uit te zoomen of op de groene pijlen voor aangrenzende kaarten.


METAR-TAF: